sensor_id;sensor_type;location;lat;lon;timestamp;P1;durP1;ratioP1;P2;durP2;ratioP2
59006;SDS011;44792;52.760;6.726;2023-04-24T00:02:23;1.67;;;1.58;;
59006;SDS011;44792;52.760;6.726;2023-04-24T00:04:49;1.60;;;1.50;;
59006;SDS011;44792;52.760;6.726;2023-04-24T00:07:15;2.17;;;2.05;;
59006;SDS011;44792;52.760;6.726;2023-04-24T00:09:42;1.75;;;1.65;;
59006;SDS011;44792;52.760;6.726;2023-04-24T00:12:08;2.53;;;2.33;;
59006;SDS011;44792;52.760;6.726;2023-04-24T00:14:34;3.15;;;2.40;;
59006;SDS011;44792;52.760;6.726;2023-04-24T00:17:00;2.35;;;2.22;;
59006;SDS011;44792;52.760;6.726;2023-04-24T00:19:27;2.10;;;2.00;;
59006;SDS011;44792;52.760;6.726;2023-04-24T00:21:53;2.72;;;2.53;;
59006;SDS011;44792;52.760;6.726;2023-04-24T00:24:20;2.72;;;2.53;;
59006;SDS011;44792;52.760;6.726;2023-04-24T00:26:46;2.75;;;2.55;;
59006;SDS011;44792;52.760;6.726;2023-04-24T00:29:12;2.40;;;2.20;;
59006;SDS011;44792;52.760;6.726;2023-04-24T00:31:38;2.85;;;2.65;;
59006;SDS011;44792;52.760;6.726;2023-04-24T00:34:04;2.25;;;2.15;;
59006;SDS011;44792;52.760;6.726;2023-04-24T00:36:30;2.38;;;2.17;;
59006;SDS011;44792;52.760;6.726;2023-04-24T00:38:57;2.10;;;2.00;;
59006;SDS011;44792;52.760;6.726;2023-04-24T00:41:24;2.05;;;1.95;;
59006;SDS011;44792;52.760;6.726;2023-04-24T00:43:50;1.60;;;1.50;;
59006;SDS011;44792;52.760;6.726;2023-04-24T00:46:17;1.70;;;1.60;;
59006;SDS011;44792;52.760;6.726;2023-04-24T00:48:43;1.73;;;1.63;;
59006;SDS011;44792;52.760;6.726;2023-04-24T00:51:09;2.08;;;1.85;;
59006;SDS011;44792;52.760;6.726;2023-04-24T00:53:35;1.73;;;1.63;;
59006;SDS011;44792;52.760;6.726;2023-04-24T00:56:01;1.98;;;1.88;;
59006;SDS011;44792;52.760;6.726;2023-04-24T00:58:27;1.85;;;1.75;;
59006;SDS011;44792;52.760;6.726;2023-04-24T01:00:54;1.67;;;1.40;;
59006;SDS011;44792;52.760;6.726;2023-04-24T01:03:21;1.70;;;1.60;;
59006;SDS011;44792;52.760;6.726;2023-04-24T01:05:48;3.00;;;1.60;;
59006;SDS011;44792;52.760;6.726;2023-04-24T01:08:14;1.92;;;1.83;;
59006;SDS011;44792;52.760;6.726;2023-04-24T01:10:40;1.90;;;1.80;;
59006;SDS011;44792;52.760;6.726;2023-04-24T01:13:07;2.08;;;1.77;;
59006;SDS011;44792;52.760;6.726;2023-04-24T01:15:34;1.95;;;1.85;;
59006;SDS011;44792;52.760;6.726;2023-04-24T01:18:00;1.70;;;1.60;;
59006;SDS011;44792;52.760;6.726;2023-04-24T01:20:25;2.00;;;1.90;;
59006;SDS011;44792;52.760;6.726;2023-04-24T01:22:51;2.10;;;2.00;;
59006;SDS011;44792;52.760;6.726;2023-04-24T01:25:19;1.90;;;1.80;;
59006;SDS011;44792;52.760;6.726;2023-04-24T01:27:45;2.03;;;1.92;;
59006;SDS011;44792;52.760;6.726;2023-04-24T01:30:11;1.88;;;1.77;;
59006;SDS011;44792;52.760;6.726;2023-04-24T01:32:37;2.28;;;2.17;;
59006;SDS011;44792;52.760;6.726;2023-04-24T01:35:04;2.13;;;2.03;;
59006;SDS011;44792;52.760;6.726;2023-04-24T01:37:30;2.30;;;2.20;;
59006;SDS011;44792;52.760;6.726;2023-04-24T01:39:57;2.00;;;1.90;;
59006;SDS011;44792;52.760;6.726;2023-04-24T01:42:23;2.00;;;1.90;;
59006;SDS011;44792;52.760;6.726;2023-04-24T01:44:49;2.88;;;2.55;;
59006;SDS011;44792;52.760;6.726;2023-04-24T01:47:16;4.05;;;2.20;;
59006;SDS011;44792;52.760;6.726;2023-04-24T01:49:42;2.35;;;2.15;;
59006;SDS011;44792;52.760;6.726;2023-04-24T01:52:07;3.85;;;2.58;;
59006;SDS011;44792;52.760;6.726;2023-04-24T01:54:33;4.03;;;2.78;;
59006;SDS011;44792;52.760;6.726;2023-04-24T01:56:59;3.83;;;3.08;;
59006;SDS011;44792;52.760;6.726;2023-04-24T01:59:26;3.20;;;2.92;;
59006;SDS011;44792;52.760;6.726;2023-04-24T02:01:53;3.15;;;2.78;;
59006;SDS011;44792;52.760;6.726;2023-04-24T02:04:19;2.92;;;2.72;;
59006;SDS011;44792;52.760;6.726;2023-04-24T02:06:45;5.53;;;3.05;;
59006;SDS011;44792;52.760;6.726;2023-04-24T02:09:10;4.63;;;3.58;;
59006;SDS011;44792;52.760;6.726;2023-04-24T02:11:36;4.45;;;2.95;;
59006;SDS011;44792;52.760;6.726;2023-04-24T02:14:02;4.13;;;3.60;;
59006;SDS011;44792;52.760;6.726;2023-04-24T02:16:28;4.18;;;3.78;;
59006;SDS011;44792;52.760;6.726;2023-04-24T02:18:57;4.57;;;3.95;;
59006;SDS011;44792;52.760;6.726;2023-04-24T02:21:23;4.15;;;3.75;;
59006;SDS011;44792;52.760;6.726;2023-04-24T02:23:49;3.70;;;3.38;;
59006;SDS011;44792;52.760;6.726;2023-04-24T02:26:15;5.45;;;3.65;;
59006;SDS011;44792;52.760;6.726;2023-04-24T02:28:41;4.18;;;3.80;;
59006;SDS011;44792;52.760;6.726;2023-04-24T02:31:07;4.32;;;3.92;;
59006;SDS011;44792;52.760;6.726;2023-04-24T02:33:32;4.00;;;3.70;;
59006;SDS011;44792;52.760;6.726;2023-04-24T02:35:58;5.22;;;4.72;;
59006;SDS011;44792;52.760;6.726;2023-04-24T02:38:24;4.47;;;4.07;;
59006;SDS011;44792;52.760;6.726;2023-04-24T02:40:50;4.15;;;3.85;;
59006;SDS011;44792;52.760;6.726;2023-04-24T02:43:15;5.40;;;4.38;;
59006;SDS011;44792;52.760;6.726;2023-04-24T02:45:41;5.10;;;3.90;;
59006;SDS011;44792;52.760;6.726;2023-04-24T02:48:07;4.50;;;4.10;;
59006;SDS011;44792;52.760;6.726;2023-04-24T02:50:32;3.85;;;3.55;;
59006;SDS011;44792;52.760;6.726;2023-04-24T02:52:58;4.75;;;4.35;;
59006;SDS011;44792;52.760;6.726;2023-04-24T02:55:24;4.68;;;4.03;;
59006;SDS011;44792;52.760;6.726;2023-04-24T02:57:50;4.28;;;3.88;;
59006;SDS011;44792;52.760;6.726;2023-04-24T03:00:15;4.30;;;3.90;;
59006;SDS011;44792;52.760;6.726;2023-04-24T03:02:41;4.70;;;3.85;;
59006;SDS011;44792;52.760;6.726;2023-04-24T03:05:07;4.15;;;3.75;;
59006;SDS011;44792;52.760;6.726;2023-04-24T03:07:34;4.00;;;3.70;;
59006;SDS011;44792;52.760;6.726;2023-04-24T03:09:59;6.68;;;4.85;;
59006;SDS011;44792;52.760;6.726;2023-04-24T03:12:25;3.53;;;3.22;;
59006;SDS011;44792;52.760;6.726;2023-04-24T03:14:51;4.15;;;3.75;;
59006;SDS011;44792;52.760;6.726;2023-04-24T03:17:17;4.75;;;4.20;;
59006;SDS011;44792;52.760;6.726;2023-04-24T03:19:42;4.25;;;3.45;;
59006;SDS011;44792;52.760;6.726;2023-04-24T03:22:08;5.95;;;3.65;;
59006;SDS011;44792;52.760;6.726;2023-04-24T03:24:34;3.70;;;3.38;;
59006;SDS011;44792;52.760;6.726;2023-04-24T03:27:00;4.22;;;3.78;;
59006;SDS011;44792;52.760;6.726;2023-04-24T03:29:25;4.75;;;3.97;;
59006;SDS011;44792;52.760;6.726;2023-04-24T03:31:51;4.88;;;3.75;;
59006;SDS011;44792;52.760;6.726;2023-04-24T03:34:17;4.30;;;3.90;;
59006;SDS011;44792;52.760;6.726;2023-04-24T03:36:43;4.07;;;3.75;;
59006;SDS011;44792;52.760;6.726;2023-04-24T03:39:08;4.90;;;4.50;;
59006;SDS011;44792;52.760;6.726;2023-04-24T03:41:35;5.18;;;4.68;;
59006;SDS011;44792;52.760;6.726;2023-04-24T03:44:00;5.15;;;4.63;;
59006;SDS011;44792;52.760;6.726;2023-04-24T03:46:26;5.63;;;4.57;;
59006;SDS011;44792;52.760;6.726;2023-04-24T03:48:52;6.68;;;4.47;;
59006;SDS011;44792;52.760;6.726;2023-04-24T03:51:17;5.13;;;4.63;;
59006;SDS011;44792;52.760;6.726;2023-04-24T03:53:43;5.50;;;4.88;;
59006;SDS011;44792;52.760;6.726;2023-04-24T03:56:09;5.25;;;4.75;;
59006;SDS011;44792;52.760;6.726;2023-04-24T03:58:34;6.50;;;4.85;;
59006;SDS011;44792;52.760;6.726;2023-04-24T04:01:00;5.50;;;5.00;;
59006;SDS011;44792;52.760;6.726;2023-04-24T04:03:26;5.78;;;4.55;;
59006;SDS011;44792;52.760;6.726;2023-04-24T04:05:51;5.82;;;5.15;;
59006;SDS011;44792;52.760;6.726;2023-04-24T04:08:18;5.93;;;5.32;;
59006;SDS011;44792;52.760;6.726;2023-04-24T04:10:43;5.60;;;5.00;;
59006;SDS011;44792;52.760;6.726;2023-04-24T04:13:09;7.35;;;5.07;;
59006;SDS011;44792;52.760;6.726;2023-04-24T04:15:35;5.60;;;5.00;;
59006;SDS011;44792;52.760;6.726;2023-04-24T04:18:00;6.28;;;4.97;;
59006;SDS011;44792;52.760;6.726;2023-04-24T04:20:26;7.03;;;5.78;;
59006;SDS011;44792;52.760;6.726;2023-04-24T04:22:52;5.60;;;5.00;;
59006;SDS011;44792;52.760;6.726;2023-04-24T04:25:18;5.85;;;5.05;;
59006;SDS011;44792;52.760;6.726;2023-04-24T04:27:45;5.50;;;4.85;;
59006;SDS011;44792;52.760;6.726;2023-04-24T04:30:12;5.38;;;4.85;;
59006;SDS011;44792;52.760;6.726;2023-04-24T04:32:39;5.88;;;4.80;;
59006;SDS011;44792;52.760;6.726;2023-04-24T04:35:04;5.25;;;4.53;;
59006;SDS011;44792;52.760;6.726;2023-04-24T04:37:31;5.75;;;5.03;;
59006;SDS011;44792;52.760;6.726;2023-04-24T04:39:58;6.57;;;5.60;;
59006;SDS011;44792;52.760;6.726;2023-04-24T04:42:24;6.72;;;5.53;;
59006;SDS011;44792;52.760;6.726;2023-04-24T04:44:52;5.72;;;4.68;;
59006;SDS011;44792;52.760;6.726;2023-04-24T04:47:18;5.60;;;5.00;;
59006;SDS011;44792;52.760;6.726;2023-04-24T04:49:49;5.72;;;4.82;;
59006;SDS011;44792;52.760;6.726;2023-04-24T04:52:16;6.40;;;4.72;;
59006;SDS011;44792;52.760;6.726;2023-04-24T04:54:42;5.80;;;4.90;;
59006;SDS011;44792;52.760;6.726;2023-04-24T04:57:08;6.47;;;5.25;;
59006;SDS011;44792;52.760;6.726;2023-04-24T04:59:34;5.55;;;4.55;;
59006;SDS011;44792;52.760;6.726;2023-04-24T05:02:00;5.93;;;5.32;;
59006;SDS011;44792;52.760;6.726;2023-04-24T05:04:26;5.93;;;4.85;;
59006;SDS011;44792;52.760;6.726;2023-04-24T05:06:51;4.88;;;4.43;;
59006;SDS011;44792;52.760;6.726;2023-04-24T05:09:17;6.25;;;4.80;;
59006;SDS011;44792;52.760;6.726;2023-04-24T05:11:43;5.60;;;4.82;;
59006;SDS011;44792;52.760;6.726;2023-04-24T05:14:09;5.38;;;4.88;;
59006;SDS011;44792;52.760;6.726;2023-04-24T05:16:35;5.28;;;4.75;;
59006;SDS011;44792;52.760;6.726;2023-04-24T05:19:02;6.00;;;4.43;;
59006;SDS011;44792;52.760;6.726;2023-04-24T05:21:28;5.07;;;4.43;;
59006;SDS011;44792;52.760;6.726;2023-04-24T05:23:54;5.90;;;4.55;;
59006;SDS011;44792;52.760;6.726;2023-04-24T05:26:19;5.80;;;4.65;;
59006;SDS011;44792;52.760;6.726;2023-04-24T05:28:45;4.68;;;4.15;;
59006;SDS011;44792;52.760;6.726;2023-04-24T05:31:11;4.50;;;4.10;;
59006;SDS011;44792;52.760;6.726;2023-04-24T05:33:37;4.50;;;4.10;;
59006;SDS011;44792;52.760;6.726;2023-04-24T05:36:03;4.28;;;3.88;;
59006;SDS011;44792;52.760;6.726;2023-04-24T05:38:30;4.15;;;3.75;;
59006;SDS011;44792;52.760;6.726;2023-04-24T05:40:56;4.32;;;3.63;;
59006;SDS011;44792;52.760;6.726;2023-04-24T05:43:21;4.13;;;3.47;;
59006;SDS011;44792;52.760;6.726;2023-04-24T05:45:47;4.07;;;3.67;;
59006;SDS011;44792;52.760;6.726;2023-04-24T05:48:13;3.58;;;3.28;;
59006;SDS011;44792;52.760;6.726;2023-04-24T05:50:38;3.75;;;3.45;;
59006;SDS011;44792;52.760;6.726;2023-04-24T05:53:05;3.28;;;2.97;;
59006;SDS011;44792;52.760;6.726;2023-04-24T05:55:32;3.53;;;3.20;;
59006;SDS011;44792;52.760;6.726;2023-04-24T05:57:57;3.42;;;3.13;;
59006;SDS011;44792;52.760;6.726;2023-04-24T06:00:23;3.35;;;3.05;;
59006;SDS011;44792;52.760;6.726;2023-04-24T06:02:50;3.50;;;3.13;;
59006;SDS011;44792;52.760;6.726;2023-04-24T06:05:16;3.38;;;3.08;;
59006;SDS011;44792;52.760;6.726;2023-04-24T06:07:42;8.70;;;2.90;;
59006;SDS011;44792;52.760;6.726;2023-04-24T06:10:08;2.85;;;2.55;;
59006;SDS011;44792;52.760;6.726;2023-04-24T06:12:35;4.03;;;2.90;;
59006;SDS011;44792;52.760;6.726;2023-04-24T06:15:01;3.17;;;2.90;;
59006;SDS011;44792;52.760;6.726;2023-04-24T06:17:27;3.20;;;2.85;;
59006;SDS011;44792;52.760;6.726;2023-04-24T06:19:53;4.90;;;2.55;;
59006;SDS011;44792;52.760;6.726;2023-04-24T06:22:18;2.88;;;2.67;;
59006;SDS011;44792;52.760;6.726;2023-04-24T06:24:44;3.25;;;2.92;;
59006;SDS011;44792;52.760;6.726;2023-04-24T06:27:10;2.75;;;2.55;;
59006;SDS011;44792;52.760;6.726;2023-04-24T06:29:36;2.20;;;2.00;;
59006;SDS011;44792;52.760;6.726;2023-04-24T06:32:01;1.83;;;1.70;;
59006;SDS011;44792;52.760;6.726;2023-04-24T06:34:27;4.40;;;2.20;;
59006;SDS011;44792;52.760;6.726;2023-04-24T06:36:53;1.80;;;1.70;;
59006;SDS011;44792;52.760;6.726;2023-04-24T06:39:20;3.35;;;1.67;;
59006;SDS011;44792;52.760;6.726;2023-04-24T06:41:45;1.77;;;1.67;;
59006;SDS011;44792;52.760;6.726;2023-04-24T06:44:11;1.85;;;1.73;;
59006;SDS011;44792;52.760;6.726;2023-04-24T06:46:37;1.90;;;1.80;;
59006;SDS011;44792;52.760;6.726;2023-04-24T06:49:02;2.00;;;1.90;;
59006;SDS011;44792;52.760;6.726;2023-04-24T06:51:28;1.35;;;1.25;;
59006;SDS011;44792;52.760;6.726;2023-04-24T06:53:54;1.60;;;1.50;;
59006;SDS011;44792;52.760;6.726;2023-04-24T06:56:21;2.35;;;1.30;;
59006;SDS011;44792;52.760;6.726;2023-04-24T06:58:47;1.48;;;1.30;;
59006;SDS011;44792;52.760;6.726;2023-04-24T07:01:13;1.50;;;1.40;;
59006;SDS011;44792;52.760;6.726;2023-04-24T07:03:39;1.50;;;1.40;;
59006;SDS011;44792;52.760;6.726;2023-04-24T07:06:05;1.48;;;1.38;;
59006;SDS011;44792;52.760;6.726;2023-04-24T07:08:31;1.75;;;1.65;;
59006;SDS011;44792;52.760;6.726;2023-04-24T07:10:58;1.50;;;1.40;;
59006;SDS011;44792;52.760;6.726;2023-04-24T07:13:24;1.77;;;1.40;;
59006;SDS011;44792;52.760;6.726;2023-04-24T07:15:51;2.35;;;1.90;;
59006;SDS011;44792;52.760;6.726;2023-04-24T07:18:18;2.13;;;1.95;;
59006;SDS011;44792;52.760;6.726;2023-04-24T07:20:45;2.10;;;1.90;;
59006;SDS011;44792;52.760;6.726;2023-04-24T07:23:11;2.15;;;2.03;;
59006;SDS011;44792;52.760;6.726;2023-04-24T07:25:36;5.03;;;2.50;;
59006;SDS011;44792;52.760;6.726;2023-04-24T07:28:03;3.40;;;2.80;;
59006;SDS011;44792;52.760;6.726;2023-04-24T07:30:30;3.25;;;2.33;;
59006;SDS011;44792;52.760;6.726;2023-04-24T07:32:57;2.97;;;2.25;;
59006;SDS011;44792;52.760;6.726;2023-04-24T07:35:23;2.50;;;2.30;;
59006;SDS011;44792;52.760;6.726;2023-04-24T07:37:53;3.83;;;2.67;;
59006;SDS011;44792;52.760;6.726;2023-04-24T07:40:19;3.53;;;2.60;;
59006;SDS011;44792;52.760;6.726;2023-04-24T07:42:45;4.45;;;3.05;;
59006;SDS011;44792;52.760;6.726;2023-04-24T07:45:13;2.50;;;2.25;;
59006;SDS011;44792;52.760;6.726;2023-04-24T07:47:40;3.00;;;2.63;;
59006;SDS011;44792;52.760;6.726;2023-04-24T07:50:09;3.05;;;2.40;;
59006;SDS011;44792;52.760;6.726;2023-04-24T07:52:35;3.20;;;2.90;;
59006;SDS011;44792;52.760;6.726;2023-04-24T07:55:01;4.93;;;2.78;;
59006;SDS011;44792;52.760;6.726;2023-04-24T07:57:27;5.40;;;2.75;;
59006;SDS011;44792;52.760;6.726;2023-04-24T07:59:54;2.97;;;2.55;;
59006;SDS011;44792;52.760;6.726;2023-04-24T08:02:20;3.33;;;2.72;;
59006;SDS011;44792;52.760;6.726;2023-04-24T08:04:51;3.13;;;2.60;;
59006;SDS011;44792;52.760;6.726;2023-04-24T08:07:19;3.03;;;2.60;;
59006;SDS011;44792;52.760;6.726;2023-04-24T08:09:45;6.03;;;2.70;;
59006;SDS011;44792;52.760;6.726;2023-04-24T08:12:10;2.95;;;2.65;;
59006;SDS011;44792;52.760;6.726;2023-04-24T08:14:36;3.72;;;2.75;;
59006;SDS011;44792;52.760;6.726;2023-04-24T08:17:02;3.53;;;2.38;;
59006;SDS011;44792;52.760;6.726;2023-04-24T08:19:28;3.22;;;2.20;;
59006;SDS011;44792;52.760;6.726;2023-04-24T08:21:54;2.08;;;1.98;;
59006;SDS011;44792;52.760;6.726;2023-04-24T08:24:20;3.05;;;2.10;;
59006;SDS011;44792;52.760;6.726;2023-04-24T08:26:46;2.85;;;2.10;;
59006;SDS011;44792;52.760;6.726;2023-04-24T08:29:15;1.80;;;1.70;;
59006;SDS011;44792;52.760;6.726;2023-04-24T08:31:41;2.55;;;1.95;;
59006;SDS011;44792;52.760;6.726;2023-04-24T08:34:06;2.42;;;2.17;;
59006;SDS011;44792;52.760;6.726;2023-04-24T08:36:32;3.03;;;2.00;;
59006;SDS011;44792;52.760;6.726;2023-04-24T08:38:58;2.47;;;1.85;;
59006;SDS011;44792;52.760;6.726;2023-04-24T08:41:24;2.25;;;2.05;;
59006;SDS011;44792;52.760;6.726;2023-04-24T08:43:52;2.08;;;1.85;;
59006;SDS011;44792;52.760;6.726;2023-04-24T08:46:18;2.92;;;2.20;;
59006;SDS011;44792;52.760;6.726;2023-04-24T08:48:44;8.15;;;3.20;;
59006;SDS011;44792;52.760;6.726;2023-04-24T08:51:10;7.25;;;3.50;;
59006;SDS011;44792;52.760;6.726;2023-04-24T08:53:36;6.75;;;3.83;;
59006;SDS011;44792;52.760;6.726;2023-04-24T08:56:02;5.47;;;4.75;;
59006;SDS011;44792;52.760;6.726;2023-04-24T08:58:29;7.10;;;4.70;;
59006;SDS011;44792;52.760;6.726;2023-04-24T09:00:57;7.68;;;4.20;;
59006;SDS011;44792;52.760;6.726;2023-04-24T09:03:23;8.23;;;4.80;;
59006;SDS011;44792;52.760;6.726;2023-04-24T09:05:49;16.58;;;6.97;;
59006;SDS011;44792;52.760;6.726;2023-04-24T09:08:18;11.38;;;6.20;;
59006;SDS011;44792;52.760;6.726;2023-04-24T09:10:44;11.80;;;5.22;;
59006;SDS011;44792;52.760;6.726;2023-04-24T09:13:10;13.02;;;6.70;;
59006;SDS011;44792;52.760;6.726;2023-04-24T09:15:40;8.20;;;5.63;;
59006;SDS011;44792;52.760;6.726;2023-04-24T09:18:06;8.20;;;6.05;;
59006;SDS011;44792;52.760;6.726;2023-04-24T09:20:32;13.35;;;6.35;;
59006;SDS011;44792;52.760;6.726;2023-04-24T09:22:58;11.27;;;6.72;;
59006;SDS011;44792;52.760;6.726;2023-04-24T09:25:33;12.05;;;6.95;;
59006;SDS011;44792;52.760;6.726;2023-04-24T09:28:04;14.13;;;8.07;;
59006;SDS011;44792;52.760;6.726;2023-04-24T09:30:31;14.32;;;8.43;;
59006;SDS011;44792;52.760;6.726;2023-04-24T09:33:13;12.55;;;8.13;;
59006;SDS011;44792;52.760;6.726;2023-04-24T09:35:41;16.05;;;9.20;;
59006;SDS011;44792;52.760;6.726;2023-04-24T09:38:08;18.15;;;9.10;;
59006;SDS011;44792;52.760;6.726;2023-04-24T09:40:34;19.30;;;9.88;;
59006;SDS011;44792;52.760;6.726;2023-04-24T09:43:01;16.17;;;8.93;;
59006;SDS011;44792;52.760;6.726;2023-04-24T09:45:37;15.30;;;8.63;;
59006;SDS011;44792;52.760;6.726;2023-04-24T09:48:04;13.30;;;8.23;;
59006;SDS011;44792;52.760;6.726;2023-04-24T09:50:31;16.00;;;7.97;;
59006;SDS011;44792;52.760;6.726;2023-04-24T09:53:01;13.45;;;9.00;;
59006;SDS011;44792;52.760;6.726;2023-04-24T09:55:27;15.13;;;8.18;;
59006;SDS011;44792;52.760;6.726;2023-04-24T09:57:57;10.77;;;7.80;;
59006;SDS011;44792;52.760;6.726;2023-04-24T10:00:29;9.35;;;7.25;;
59006;SDS011;44792;52.760;6.726;2023-04-24T10:02:57;11.38;;;7.25;;
59006;SDS011;44792;52.760;6.726;2023-04-24T10:05:24;10.90;;;8.48;;
59006;SDS011;44792;52.760;6.726;2023-04-24T10:08:06;12.43;;;7.93;;
59006;SDS011;44792;52.760;6.726;2023-04-24T10:10:37;10.68;;;7.90;;
59006;SDS011;44792;52.760;6.726;2023-04-24T10:13:05;11.50;;;7.05;;
59006;SDS011;44792;52.760;6.726;2023-04-24T10:15:34;11.93;;;7.07;;
59006;SDS011;44792;52.760;6.726;2023-04-24T10:18:00;8.65;;;6.43;;
59006;SDS011;44792;52.760;6.726;2023-04-24T10:20:27;9.57;;;6.78;;
59006;SDS011;44792;52.760;6.726;2023-04-24T10:22:56;10.18;;;6.80;;
59006;SDS011;44792;52.760;6.726;2023-04-24T10:25:24;12.10;;;6.28;;
59006;SDS011;44792;52.760;6.726;2023-04-24T10:27:54;11.63;;;6.55;;
59006;SDS011;44792;52.760;6.726;2023-04-24T10:30:24;8.77;;;6.00;;
59006;SDS011;44792;52.760;6.726;2023-04-24T10:32:51;9.48;;;6.00;;
59006;SDS011;44792;52.760;6.726;2023-04-24T10:35:17;9.68;;;5.78;;
59006;SDS011;44792;52.760;6.726;2023-04-24T10:37:54;6.43;;;4.60;;
59006;SDS011;44792;52.760;6.726;2023-04-24T10:40:25;9.50;;;5.75;;
59006;SDS011;44792;52.760;6.726;2023-04-24T10:43:07;10.40;;;4.90;;
59006;SDS011;44792;52.760;6.726;2023-04-24T10:45:36;9.88;;;5.70;;
59006;SDS011;44792;52.760;6.726;2023-04-24T10:48:04;12.68;;;4.95;;
59006;SDS011;44792;52.760;6.726;2023-04-24T10:53:19;13.80;;;4.43;;
59006;SDS011;44792;52.760;6.726;2023-04-24T10:55:49;7.80;;;4.10;;
59006;SDS011;44792;52.760;6.726;2023-04-24T10:58:17;7.53;;;3.75;;
59006;SDS011;44792;52.760;6.726;2023-04-24T11:00:58;7.50;;;3.35;;
59006;SDS011;44792;52.760;6.726;2023-04-24T11:03:26;9.45;;;4.43;;
59006;SDS011;44792;52.760;6.726;2023-04-24T11:11:01;5.47;;;3.40;;
59006;SDS011;44792;52.760;6.726;2023-04-24T11:14:00;9.15;;;3.55;;
59006;SDS011;44792;52.760;6.726;2023-04-24T11:21:47;11.23;;;4.15;;
59006;SDS011;44792;52.760;6.726;2023-04-24T11:32:14;6.45;;;2.63;;
59006;SDS011;44792;52.760;6.726;2023-04-24T11:34:47;6.07;;;2.83;;
59006;SDS011;44792;52.760;6.726;2023-04-24T11:37:14;7.30;;;2.22;;
59006;SDS011;44792;52.760;6.726;2023-04-24T11:39:40;8.07;;;2.42;;
59006;SDS011;44792;52.760;6.726;2023-04-24T11:42:06;7.03;;;2.55;;
59006;SDS011;44792;52.760;6.726;2023-04-24T11:44:36;7.32;;;2.60;;
59006;SDS011;44792;52.760;6.726;2023-04-24T11:47:05;5.90;;;2.58;;
59006;SDS011;44792;52.760;6.726;2023-04-24T11:49:37;5.90;;;3.47;;
59006;SDS011;44792;52.760;6.726;2023-04-24T11:52:03;8.00;;;2.72;;
59006;SDS011;44792;52.760;6.726;2023-04-24T11:54:29;5.25;;;2.53;;
59006;SDS011;44792;52.760;6.726;2023-04-24T11:56:56;7.70;;;3.00;;
59006;SDS011;44792;52.760;6.726;2023-04-24T11:59:22;9.50;;;3.72;;
59006;SDS011;44792;52.760;6.726;2023-04-24T12:01:48;6.80;;;3.10;;
59006;SDS011;44792;52.760;6.726;2023-04-24T12:04:15;10.73;;;2.60;;
59006;SDS011;44792;52.760;6.726;2023-04-24T12:07:04;7.93;;;2.35;;
59006;SDS011;44792;52.760;6.726;2023-04-24T12:12:12;4.60;;;2.55;;
59006;SDS011;44792;52.760;6.726;2023-04-24T12:17:17;1.98;;;1.85;;
59006;SDS011;44792;52.760;6.726;2023-04-24T12:19:46;5.55;;;2.38;;
59006;SDS011;44792;52.760;6.726;2023-04-24T12:22:13;6.70;;;1.92;;
59006;SDS011;44792;52.760;6.726;2023-04-24T12:27:33;6.57;;;2.20;;
59006;SDS011;44792;52.760;6.726;2023-04-24T12:30:00;7.35;;;3.20;;
59006;SDS011;44792;52.760;6.726;2023-04-24T12:32:28;8.35;;;2.30;;
59006;SDS011;44792;52.760;6.726;2023-04-24T12:34:54;5.75;;;2.03;;
59006;SDS011;44792;52.760;6.726;2023-04-24T12:37:22;8.40;;;2.78;;
59006;SDS011;44792;52.760;6.726;2023-04-24T12:42:33;8.48;;;3.08;;
59006;SDS011;44792;52.760;6.726;2023-04-24T12:45:01;3.90;;;2.10;;
59006;SDS011;44792;52.760;6.726;2023-04-24T12:47:29;4.75;;;2.13;;
59006;SDS011;44792;52.760;6.726;2023-04-24T12:49:55;5.13;;;2.10;;
59006;SDS011;44792;52.760;6.726;2023-04-24T12:52:25;5.25;;;2.05;;
59006;SDS011;44792;52.760;6.726;2023-04-24T12:54:58;3.83;;;2.10;;
59006;SDS011;44792;52.760;6.726;2023-04-24T12:57:26;5.30;;;1.40;;
59006;SDS011;44792;52.760;6.726;2023-04-24T12:59:54;3.42;;;1.20;;
59006;SDS011;44792;52.760;6.726;2023-04-24T13:02:29;3.08;;;1.45;;
59006;SDS011;44792;52.760;6.726;2023-04-24T13:04:56;4.72;;;1.65;;
59006;SDS011;44792;52.760;6.726;2023-04-24T13:07:26;1.35;;;1.23;;
59006;SDS011;44792;52.760;6.726;2023-04-24T13:09:52;3.25;;;1.50;;
59006;SDS011;44792;52.760;6.726;2023-04-24T13:12:19;1.90;;;1.25;;
59006;SDS011;44792;52.760;6.726;2023-04-24T13:14:45;1.17;;;1.13;;
59006;SDS011;44792;52.760;6.726;2023-04-24T13:17:11;2.00;;;1.40;;
59006;SDS011;44792;52.760;6.726;2023-04-24T13:19:38;2.30;;;1.40;;
59006;SDS011;44792;52.760;6.726;2023-04-24T13:22:06;3.83;;;2.20;;
59006;SDS011;44792;52.760;6.726;2023-04-24T13:24:32;3.25;;;1.27;;
59006;SDS011;44792;52.760;6.726;2023-04-24T13:26:58;2.70;;;1.35;;
59006;SDS011;44792;52.760;6.726;2023-04-24T13:29:25;2.38;;;1.40;;
59006;SDS011;44792;52.760;6.726;2023-04-24T13:31:50;6.28;;;1.92;;
59006;SDS011;44792;52.760;6.726;2023-04-24T13:34:17;4.15;;;1.70;;
59006;SDS011;44792;52.760;6.726;2023-04-24T13:36:43;1.70;;;1.55;;
59006;SDS011;44792;52.760;6.726;2023-04-24T13:39:09;4.55;;;1.77;;
59006;SDS011;44792;52.760;6.726;2023-04-24T13:41:35;3.58;;;1.50;;
59006;SDS011;44792;52.760;6.726;2023-04-24T13:44:01;1.80;;;1.58;;
59006;SDS011;44792;52.760;6.726;2023-04-24T13:46:28;4.53;;;1.77;;
59006;SDS011;44792;52.760;6.726;2023-04-24T13:48:53;3.10;;;1.40;;
59006;SDS011;44792;52.760;6.726;2023-04-24T13:51:19;3.50;;;1.70;;
59006;SDS011;44792;52.760;6.726;2023-04-24T13:53:45;5.95;;;1.70;;
59006;SDS011;44792;52.760;6.726;2023-04-24T13:56:11;4.60;;;1.95;;
59006;SDS011;44792;52.760;6.726;2023-04-24T13:58:37;4.55;;;2.00;;
59006;SDS011;44792;52.760;6.726;2023-04-24T14:01:03;5.10;;;3.15;;
59006;SDS011;44792;52.760;6.726;2023-04-24T14:03:29;4.40;;;2.10;;
59006;SDS011;44792;52.760;6.726;2023-04-24T14:05:55;6.00;;;2.05;;
59006;SDS011;44792;52.760;6.726;2023-04-24T14:08:21;5.10;;;1.98;;
59006;SDS011;44792;52.760;6.726;2023-04-24T14:10:47;1.73;;;1.50;;
59006;SDS011;44792;52.760;6.726;2023-04-24T14:13:12;5.00;;;1.50;;
59006;SDS011;44792;52.760;6.726;2023-04-24T14:15:39;4.00;;;1.40;;
59006;SDS011;44792;52.760;6.726;2023-04-24T14:18:05;1.77;;;1.10;;
59006;SDS011;44792;52.760;6.726;2023-04-24T14:20:30;4.28;;;1.40;;
59006;SDS011;44792;52.760;6.726;2023-04-24T14:22:57;3.45;;;1.40;;
59006;SDS011;44792;52.760;6.726;2023-04-24T14:25:25;7.43;;;2.47;;
59006;SDS011;44792;52.760;6.726;2023-04-24T14:27:51;5.00;;;1.95;;
59006;SDS011;44792;52.760;6.726;2023-04-24T14:30:17;6.07;;;1.50;;
59006;SDS011;44792;52.760;6.726;2023-04-24T14:32:44;6.70;;;1.77;;
59006;SDS011;44792;52.760;6.726;2023-04-24T14:35:10;9.05;;;2.72;;
59006;SDS011;44792;52.760;6.726;2023-04-24T14:37:36;5.57;;;2.17;;
59006;SDS011;44792;52.760;6.726;2023-04-24T14:40:02;4.63;;;1.92;;
59006;SDS011;44792;52.760;6.726;2023-04-24T14:42:30;7.95;;;2.47;;
59006;SDS011;44792;52.760;6.726;2023-04-24T14:44:56;8.40;;;3.03;;
59006;SDS011;44792;52.760;6.726;2023-04-24T14:47:21;7.50;;;2.65;;
59006;SDS011;44792;52.760;6.726;2023-04-24T14:49:48;7.82;;;2.22;;
59006;SDS011;44792;52.760;6.726;2023-04-24T14:52:13;6.90;;;2.85;;
59006;SDS011;44792;52.760;6.726;2023-04-24T14:54:39;5.25;;;1.98;;
59006;SDS011;44792;52.760;6.726;2023-04-24T14:57:05;10.70;;;2.72;;
59006;SDS011;44792;52.760;6.726;2023-04-24T14:59:30;7.47;;;4.00;;
59006;SDS011;44792;52.760;6.726;2023-04-24T15:01:57;8.20;;;2.33;;
59006;SDS011;44792;52.760;6.726;2023-04-24T15:04:23;9.70;;;2.75;;
59006;SDS011;44792;52.760;6.726;2023-04-24T15:06:51;7.75;;;2.92;;
59006;SDS011;44792;52.760;6.726;2023-04-24T15:09:18;9.60;;;2.78;;
59006;SDS011;44792;52.760;6.726;2023-04-24T15:11:45;8.93;;;2.70;;
59006;SDS011;44792;52.760;6.726;2023-04-24T15:14:11;6.15;;;2.72;;
59006;SDS011;44792;52.760;6.726;2023-04-24T15:16:37;5.60;;;2.45;;